Time;durP1;ratioP1;P1;durP2;ratioP2;P2;SDS_P1;SDS_P2;PMS_P1;PMS_P2;Temp;Humidity;BMP_temperature;BMP_pressure;BME280_temperature;BME280_humidity;BME280_pressure;Samples;Min_cycle;Max_cycle;Signal;HPM_P1;HPM_P2
2023/05/27 00:02:07;;;;;;;4.00;1.83;;;13.10;58.70;;;12.83;56.29;98760.53;5021114;28;20482;-82
2023/05/27 00:04:35;;;;;;;4.70;2.17;;;13.00;58.60;;;12.94;56.31;98756.31;5020627;28;20479;-82
2023/05/27 00:07:02;;;;;;;8.07;2.33;;;13.00;58.60;;;12.81;56.72;98762.63;5008185;28;20971;-82
2023/05/27 00:09:30;;;;;;;3.93;2.20;;;13.00;58.30;;;12.81;56.66;98749.06;5004679;28;20461;-81
2023/05/27 00:11:57;;;;;;;7.37;2.43;;;12.90;58.70;;;12.74;55.67;98743.66;5012070;28;20815;-82
2023/05/27 00:14:24;;;;;;;2.83;2.10;;;13.00;58.00;;;12.95;55.68;98757.97;5025339;28;20879;-81
2023/05/27 00:16:52;;;;;;;7.17;2.17;;;13.00;57.90;;;12.77;55.08;98749.69;5024203;28;20466;-81
2023/05/27 00:19:20;;;;;;;3.40;2.00;;;13.00;57.30;;;12.88;54.40;98749.03;5020256;28;20954;-80
2023/05/27 00:21:47;;;;;;;4.13;2.00;;;13.10;56.60;;;13.00;53.84;98752.78;5025637;28;20459;-81
2023/05/27 00:24:15;;;;;;;5.60;2.23;;;13.20;56.20;;;12.93;53.39;98759.25;5028102;28;20475;-80
2023/05/27 00:26:42;;;;;;;4.53;1.87;;;13.20;55.60;;;12.82;53.47;98755.34;5027646;28;20496;-81
2023/05/27 00:29:10;;;;;;;1.97;1.73;;;13.00;55.40;;;12.88;53.11;98749.03;5008444;28;20523;-80
2023/05/27 00:31:37;;;;;;;9.53;2.20;;;13.10;55.30;;;12.49;53.02;98685.72;5026874;28;20488;-81
2023/05/27 00:34:04;;;;;;;3.20;1.50;;;13.10;55.20;;;12.87;52.64;98760.94;5002032;28;20491;-80
2023/05/27 00:36:33;;;;;;;6.30;2.20;;;13.10;54.70;;;12.87;52.67;98760.94;5008354;28;20944;-80
2023/05/27 00:39:02;;;;;;;7.40;2.40;;;13.00;54.70;;;12.86;52.30;98743.00;5020322;28;20462;-80
2023/05/27 00:41:29;;;;;;;2.60;1.90;;;13.10;54.50;;;12.86;52.56;98743.00;5022895;28;20439;-80
2023/05/27 00:43:57;;;;;;;5.10;1.53;;;13.00;54.40;;;12.84;52.74;98762.19;4998887;28;21149;-82
2023/05/27 00:46:25;;;;;;;7.20;2.00;;;12.90;54.70;;;12.50;53.27;98695.53;5000974;28;20486;-81
2023/05/27 00:48:52;;;;;;;5.73;1.80;;;12.90;54.90;;;12.50;53.53;98726.19;5016022;28;20547;-80
2023/05/27 00:51:20;;;;;;;5.20;2.40;;;12.80;55.10;;;12.59;54.12;98759.31;5027795;28;20487;-80
2023/05/27 00:53:49;;;;;;;3.50;2.00;;;12.70;55.40;;;12.57;54.13;98761.41;5015387;28;20508;-78
2023/05/27 00:56:16;;;;;;;3.70;1.63;;;12.60;55.60;;;12.44;54.32;98746.00;5015970;28;20450;-80
2023/05/27 00:58:44;;;;;;;6.03;1.90;;;12.50;55.70;;;12.25;54.87;98743.06;5020844;28;20447;-80
2023/05/27 01:01:11;;;;;;;10.37;2.70;;;12.50;56.30;;;12.31;55.48;98757.66;5018017;28;20540;-81
2023/05/27 01:03:41;;;;;;;3.67;2.60;;;12.40;56.60;;;12.24;56.12;98756.84;5000493;28;20462;-80
2023/05/27 01:06:20;;;;;;;7.43;2.33;;;12.30;56.90;;;12.23;56.52;98756.00;5004600;28;20534;-81
2023/05/27 01:08:58;;;;;;;5.40;2.10;;;12.30;57.50;;;11.85;56.52;98695.13;5012088;28;20445;-82
2023/05/27 01:11:32;;;;;;;8.87;2.43;;;12.20;57.60;;;12.33;57.25;98766.41;5008825;28;20475;-81
2023/05/27 01:14:06;;;;;;;5.73;2.03;;;12.30;58.70;;;12.31;58.02;98757.66;4986729;28;20547;-81
2023/05/27 01:16:35;;;;;;;5.70;2.30;;;12.40;59.40;;;12.32;58.46;98754.75;5011367;28;20926;-81
2023/05/27 01:19:04;;;;;;;5.67;2.53;;;12.40;60.00;;;12.18;59.81;98747.66;5028570;28;20509;-81
2023/05/27 01:21:32;;;;;;;4.83;2.93;;;12.30;61.10;;;12.12;59.66;98743.06;5022089;28;20541;-82
2023/05/27 01:24:06;;;;;;;5.67;2.73;;;12.20;61.50;;;11.80;60.79;98723.84;5010440;28;20481;-81
2023/05/27 01:26:33;;;;;;;7.03;3.30;;;12.10;62.40;;;11.90;60.51;98725.13;5037631;28;20484;-81
2023/05/27 01:29:00;;;;;;;6.37;2.07;;;12.20;63.10;;;11.86;61.54;98745.50;5015570;28;20896;-81
2023/05/27 01:31:35;;;;;;;4.67;2.13;;;12.10;63.40;;;11.93;60.62;98750.13;4999636;28;20803;-81
2023/05/27 01:34:09;;;;;;;2.80;1.93;;;12.10;63.60;;;11.62;60.64;98690.94;5014544;28;20962;-79
2023/05/27 01:36:42;;;;;;;8.10;2.90;;;12.10;63.70;;;11.90;61.03;98741.38;5020094;28;20471;-79
2023/05/27 01:39:13;;;;;;;7.07;2.80;;;12.00;63.90;;;11.88;60.76;98734.50;5018256;28;20482;-80
2023/05/27 01:41:42;;;;;;;4.80;2.87;;;12.00;64.10;;;11.70;60.96;98730.50;5020754;28;20465;-79
2023/05/27 01:44:11;;;;;;;4.07;2.57;;;11.90;64.20;;;11.76;60.52;98735.09;5007738;28;20451;-80
2023/05/27 01:46:38;;;;;;;7.60;3.20;;;11.90;64.80;;;11.83;61.21;98731.53;5015530;28;20447;-79
2023/05/27 01:49:05;;;;;;;6.80;2.40;;;11.90;64.80;;;11.67;61.30;98713.84;5018988;28;20468;-80
2023/05/27 01:51:33;;;;;;;5.60;2.73;;;11.90;65.00;;;11.64;61.26;98700.72;5001551;28;20465;-79
2023/05/27 01:54:00;;;;;;;4.67;2.47;;;11.90;65.10;;;11.69;61.31;98723.44;4992616;28;20996;-79
2023/05/27 01:56:29;;;;;;;5.27;2.40;;;11.80;65.60;;;11.59;61.66;98718.38;4995633;28;20457;-80
2023/05/27 01:58:56;;;;;;;4.20;2.13;;;11.80;65.80;;;11.58;61.69;98714.00;5017281;28;20972;-79
2023/05/27 02:01:23;;;;;;;4.40;2.13;;;11.70;66.20;;;11.58;62.02;98715.91;5019729;28;20615;-79
2023/05/27 02:03:51;;;;;;;6.97;4.90;;;11.60;66.60;;;11.42;61.99;98711.69;5005848;28;20553;-80
2023/05/27 02:06:19;;;;;;;4.53;2.40;;;11.60;66.90;;;11.40;61.76;98716.47;5016223;28;20464;-80
2023/05/27 02:08:46;;;;;;;4.00;2.53;;;11.50;67.00;;;11.27;62.38;98712.69;4997661;28;20466;-79
2023/05/27 02:11:14;;;;;;;7.27;2.70;;;11.50;67.00;;;11.37;62.01;98725.00;5004745;28;20455;-81
2023/05/27 02:13:42;;;;;;;3.73;2.00;;;11.50;67.20;;;11.27;62.32;98718.09;5008559;28;20507;-80
2023/05/27 02:16:12;;;;;;;6.40;2.60;;;11.40;67.10;;;11.09;61.95;98701.59;5023754;28;20450;-81
2023/05/27 02:18:40;;;;;;;3.10;2.03;;;11.40;67.20;;;11.08;62.38;98706.19;5020974;28;20477;-79
2023/05/27 02:21:07;;;;;;;6.10;2.77;;;11.30;67.60;;;11.28;62.58;98719.75;4993432;28;20467;-79
2023/05/27 02:23:36;;;;;;;6.10;2.83;;;11.30;67.70;;;11.14;62.54;98707.22;5011072;28;20463;-79
2023/05/27 02:26:03;;;;;;;3.40;2.10;;;11.30;68.50;;;10.73;62.24;98655.72;5027255;28;20482;-80
2023/05/27 02:28:30;;;;;;;4.90;2.53;;;11.30;68.10;;;11.09;62.88;98712.41;5026548;28;20532;-81
2023/05/27 02:31:01;;;;;;;7.90;2.53;;;11.20;68.60;;;10.99;62.56;98691.16;5030991;28;20547;-82
2023/05/27 02:33:28;;;;;;;6.30;2.23;;;11.30;68.90;;;11.08;63.11;98732.38;5019070;28;21132;-82
2023/05/27 02:35:55;;;;;;;9.30;3.20;;;11.20;69.00;;;10.76;63.89;98725.56;5024441;28;20565;-82
2023/05/27 02:38:22;;;;;;;4.53;2.73;;;11.00;69.60;;;10.72;64.37;98728.88;5021295;28;20459;-81
2023/05/27 02:40:50;;;;;;;4.90;2.30;;;11.00;70.00;;;10.77;63.32;98716.44;5009296;28;20459;-82
2023/05/27 02:43:17;;;;;;;6.20;2.57;;;10.90;70.10;;;10.59;64.19;98726.94;5023067;28;20525;-82
2023/05/27 02:45:44;;;;;;;4.73;2.93;;;10.80;70.00;;;10.52;64.30;98723.34;5022439;28;20462;-83
2023/05/27 02:48:13;;;;;;;4.10;2.30;;;10.70;70.40;;;10.27;64.60;98721.06;5007362;28;20508;-82
2023/05/27 02:50:40;;;;;;;3.90;2.27;;;10.60;70.70;;;10.44;64.20;98721.63;5020901;28;20508;-82
2023/05/27 02:53:08;;;;;;;4.63;2.10;;;10.60;71.40;;;10.48;64.26;98728.31;5007724;28;20489;-82
2023/05/27 02:55:35;;;;;;;5.30;2.17;;;10.50;71.50;;;10.38;64.53;98719.69;5008361;28;20994;-80
2023/05/27 02:58:04;;;;;;;4.87;2.47;;;10.50;71.60;;;10.28;64.57;98728.97;5023735;28;20465;-79
2023/05/27 03:00:31;;;;;;;5.37;2.13;;;10.40;71.20;;;10.14;64.30;98722.63;5016721;28;20461;-82
2023/05/27 03:02:58;;;;;;;6.27;2.37;;;10.30;70.70;;;9.97;64.18;98722.06;5006043;28;20457;-82
2023/05/27 03:05:27;;;;;;;3.93;2.00;;;10.20;70.80;;;10.16;64.69;98717.00;5009003;28;20450;-82
2023/05/27 03:07:54;;;;;;;2.67;1.90;;;10.30;71.00;;;10.08;65.08;98718.00;5025320;28;22289;-82
2023/05/27 03:10:22;;;;;;;4.70;2.20;;;10.20;71.20;;;9.91;64.35;98717.44;5032148;28;20564;-83
2023/05/27 03:12:50;;;;;;;6.60;2.40;;;10.20;71.50;;;9.86;64.54;98717.22;5031461;28;20502;-83
2023/05/27 03:15:19;;;;;;;6.63;2.20;;;10.10;71.70;;;9.82;64.78;98715.91;5027407;28;20454;-83
2023/05/27 03:17:46;;;;;;;5.07;2.27;;;10.10;72.10;;;9.84;65.16;98703.91;5027637;28;20460;-82
2023/05/27 03:20:13;;;;;;;4.17;2.30;;;10.00;72.20;;;9.78;65.71;98715.44;5003677;28;21213;-82
2023/05/27 03:22:42;;;;;;;4.47;2.77;;;10.00;72.50;;;9.74;64.97;98711.47;5016100;28;21181;-81
2023/05/27 03:25:10;;;;;;;4.40;2.50;;;9.90;73.30;;;9.69;64.75;98713.91;5005296;28;20464;-82
2023/05/27 03:27:37;;;;;;;7.63;2.53;;;9.90;73.30;;;9.80;64.48;98718.81;4996300;28;20459;-80
2023/05/27 03:30:06;;;;;;;3.70;2.07;;;10.00;72.30;;;9.96;64.41;98714.19;5027654;28;20462;-79
2023/05/27 03:32:33;;;;;;;4.20;2.40;;;10.10;72.20;;;10.10;63.63;98705.16;5022747;28;20459;-79
2023/05/27 03:35:01;;;;;;;11.00;2.53;;;10.20;71.90;;;9.94;63.85;98710.84;5016230;28;20459;-80
2023/05/27 03:37:28;;;;;;;7.77;2.50;;;10.20;71.60;;;9.89;64.11;98714.94;5027217;28;20843;-82
2023/05/27 03:39:57;;;;;;;3.60;1.90;;;10.10;71.60;;;10.00;63.75;98712.75;5029050;28;20458;-80
2023/05/27 03:42:24;;;;;;;6.70;2.93;;;10.10;71.80;;;9.83;64.67;98707.63;5025743;28;20463;-82
2023/05/27 03:44:51;;;;;;;6.33;2.30;;;10.10;71.50;;;9.94;64.04;98708.13;5003291;28;20459;-81
2023/05/27 03:47:20;;;;;;;4.40;2.20;;;10.10;71.60;;;10.10;63.10;98705.16;5020668;28;20466;-80
2023/05/27 03:49:48;;;;;;;5.00;2.40;;;10.30;71.60;;;9.53;62.92;98634.06;5019408;28;20469;-79
2023/05/27 03:52:15;;;;;;;4.90;2.20;;;10.30;71.30;;;10.03;63.45;98709.66;5001006;28;20541;-81
2023/05/27 03:54:43;;;;;;;6.90;1.70;;;10.30;71.20;;;10.15;63.32;98700.00;5019050;28;20458;-81
2023/05/27 03:57:12;;;;;;;6.73;3.00;;;10.30;71.50;;;10.34;63.13;98705.72;5005509;28;20451;-80
2023/05/27 03:59:39;;;;;;;11.20;2.50;;;10.40;71.30;;;10.31;63.23;98700.72;5025013;28;20464;-81
2023/05/27 04:02:06;;;;;;;4.10;2.53;;;10.50;70.60;;;10.21;62.94;98701.09;5009007;28;20915;-80
2023/05/27 04:04:34;;;;;;;4.70;2.27;;;10.50;70.70;;;10.35;62.41;98694.75;5005067;28;20474;-78
2023/05/27 04:07:01;;;;;;;4.07;2.00;;;10.60;70.60;;;10.58;61.45;98700.94;5021184;28;20454;-80
2023/05/27 04:09:29;;;;;;;9.63;2.53;;;10.80;70.10;;;10.91;60.14;98717.31;5025392;28;20521;-82
2023/05/27 04:11:56;;;;;;;5.53;2.23;;;11.00;69.20;;;11.49;59.23;98707.16;5008309;28;20462;-82
2023/05/27 04:14:25;;;;;;;5.90;2.60;;;11.60;68.60;;;12.07;56.94;98713.91;5009324;28;20487;-81
2023/05/27 04:16:52;;;;;;;9.70;2.50;;;12.20;66.20;;;12.79;55.28;98709.63;4996456;28;21657;-80
2023/05/27 04:19:22;;;;;;;4.90;2.50;;;12.90;64.70;;;13.11;54.19;98716.00;5014445;28;20462;-81
2023/05/27 04:21:49;;;;;;;4.73;1.90;;;13.30;62.50;;;13.32;53.42;98714.88;5029494;28;20935;-80
2023/05/27 04:24:19;;;;;;;7.73;2.67;;;13.70;61.20;;;13.43;53.86;98715.25;5010960;28;20490;-80
2023/05/27 04:26:46;;;;;;;4.47;2.33;;;13.80;60.80;;;14.03;50.78;98700.47;5007869;28;20502;-79
2023/05/27 04:29:15;;;;;;;7.23;3.63;;;14.40;58.40;;;14.39;49.94;98704.31;5026851;28;20463;-81
2023/05/27 04:31:44;;;;;;;7.87;3.33;;;14.70;57.20;;;14.78;48.52;98706.03;5022437;28;20525;-80
2023/05/27 04:34:11;;;;;;;4.97;2.80;;;15.10;56.30;;;14.96;47.67;98684.31;5022523;28;20478;-80
2023/05/27 04:36:38;;;;;;;5.37;2.40;;;15.30;54.80;;;15.54;46.66;98722.09;5005435;28;20968;-80
2023/05/27 04:39:07;;;;;;;6.53;2.90;;;15.80;53.90;;;15.86;46.19;98719.94;5000859;28;21074;-78
2023/05/27 04:41:35;;;;;;;5.47;2.60;;;16.20;53.10;;;15.71;46.06;98719.56;5018442;28;20962;-81
2023/05/27 04:44:02;;;;;;;5.10;2.17;;;16.40;52.10;;;15.41;46.53;98723.09;5022150;28;20456;-81
2023/05/27 04:46:32;;;;;;;9.10;2.90;;;16.30;51.70;;;15.84;46.03;98716.59;5024292;28;20546;-81
2023/05/27 04:49:01;;;;;;;6.70;2.43;;;16.40;51.90;;;15.68;45.83;98706.38;5003258;28;20477;-76
2023/05/27 04:51:28;;;;;;;10.50;3.07;;;16.60;51.30;;;15.46;46.12;98671.50;5024038;28;20476;-78
2023/05/27 04:53:56;;;;;;;1.90;1.63;;;16.60;51.00;;;16.62;43.54;98728.59;5017318;28;20478;-73
2023/05/27 04:56:23;;;;;;;5.53;2.73;;;17.00;50.60;;;16.96;43.10;98721.44;4993678;28;20492;-78
2023/05/27 04:58:50;;;;;;;6.20;2.60;;;17.20;50.20;;;16.87;42.61;98714.69;4994026;28;20526;-73
2023/05/27 05:01:18;;;;;;;6.73;2.80;;;17.40;49.30;;;17.40;41.63;98714.72;4993759;28;20943;-72
2023/05/27 05:03:52;;;;;;;2.70;2.07;;;17.70;49.50;;;16.54;42.03;98604.31;5013795;28;20497;-68
2023/05/27 05:06:25;;;;;;;9.60;2.50;;;18.00;48.60;;;17.21;42.68;98703.97;5014789;28;20454;-70
2023/05/27 05:08:52;;;;;;;3.47;2.13;;;17.80;48.80;;;17.78;40.28;98726.88;5019059;28;20583;-75
2023/05/27 05:11:19;;;;;;;6.47;2.37;;;18.20;47.70;;;18.17;40.07;98711.72;5004574;28;21146;-72
2023/05/27 05:13:47;;;;;;;4.73;2.47;;;18.90;47.40;;;18.71;39.15;98719.38;5022260;28;20482;-73
2023/05/27 05:16:14;;;;;;;4.57;2.17;;;19.20;47.10;;;18.72;38.92;98731.13;5014473;28;20464;-74
2023/05/27 05:18:41;;;;;;;4.63;2.30;;;19.40;46.50;;;17.83;40.03;98724.25;5015483;28;20462;-73
2023/05/27 05:21:09;;;;;;;2.70;1.70;;;19.00;46.40;;;18.23;39.63;98738.91;5016298;28;20537;-73
2023/05/27 05:23:38;;;;;;;4.37;2.10;;;18.70;46.30;;;18.29;39.95;98731.63;5024855;28;20466;-72
2023/05/27 05:26:06;;;;;;;3.70;2.30;;;18.60;46.60;;;18.57;39.01;98731.75;5013024;28;20498;-75
2023/05/27 05:28:35;;;;;;;5.87;2.47;;;18.80;46.30;;;18.45;39.36;98729.13;5000038;28;20455;-76
2023/05/27 05:31:03;;;;;;;6.00;1.93;;;19.30;46.20;;;17.56;40.53;98734.94;5010722;28;20530;-73
2023/05/27 05:33:31;;;;;;;5.00;2.50;;;18.70;46.00;;;18.39;38.64;98742.69;5013294;28;20485;-76
2023/05/27 05:35:58;;;;;;;3.67;1.97;;;19.10;45.50;;;19.08;37.35;98739.91;5002230;28;20447;-74
2023/05/27 05:38:25;;;;;;;2.23;1.60;;;19.50;45.30;;;18.75;38.61;98741.63;5021941;28;20457;-73
2023/05/27 05:40:54;;;;;;;5.87;2.20;;;19.40;45.50;;;19.25;37.56;98720.66;5020863;28;20469;-72
2023/05/27 05:43:21;;;;;;;3.80;2.20;;;20.00;45.20;;;19.21;37.79;98731.31;5010256;28;20467;-74
2023/05/27 05:45:48;;;;;;;6.40;2.97;;;20.40;45.00;;;19.21;38.00;98736.78;5023135;28;20458;-72
2023/05/27 05:48:16;;;;;;;4.37;2.07;;;20.40;45.00;;;18.26;38.01;98738.41;5019091;28;20455;-72
2023/05/27 05:50:43;;;;;;;5.90;2.70;;;19.60;43.80;;;17.75;39.99;98740.22;4998496;28;20589;-76
2023/05/27 05:53:11;;;;;;;4.27;2.90;;;19.00;44.60;;;16.23;41.08;98666.34;5013524;28;20466;-75
2023/05/27 05:55:39;;;;;;;2.90;1.60;;;17.80;44.60;;;16.91;40.40;98737.72;5010034;28;20523;-78
2023/05/27 05:58:08;;;;;;;7.40;2.63;;;17.70;44.70;;;16.97;40.50;98728.56;5012497;28;20477;-76
2023/05/27 06:00:36;;;;;;;3.70;1.93;;;17.80;44.80;;;16.66;40.16;98740.69;4993118;28;20492;-75
2023/05/27 06:03:04;;;;;;;3.10;1.87;;;17.40;44.30;;;16.39;41.44;98668.34;5013550;28;20453;-76
2023/05/27 06:05:32;;;;;;;6.60;2.27;;;17.60;44.90;;;16.98;39.64;98724.75;5012416;28;20462;-76
2023/05/27 06:07:59;;;;;;;2.30;1.33;;;17.90;44.50;;;16.63;39.82;98672.97;4997263;28;20449;-74
2023/05/27 06:10:26;;;;;;;3.63;1.80;;;18.00;44.10;;;16.49;40.92;98713.31;5013498;28;20534;-73
2023/05/27 06:12:54;;;;;;;6.53;2.20;;;17.60;44.80;;;16.80;40.51;98744.81;4995027;28;20573;-74
2023/05/27 06:15:22;;;;;;;3.47;2.37;;;17.50;44.80;;;17.11;40.25;98739.25;5021823;28;20454;-73
2023/05/27 06:17:49;;;;;;;3.53;2.30;;;17.80;44.70;;;16.73;41.21;98749.59;4999340;28;20465;-73
2023/05/27 06:20:17;;;;;;;6.07;2.30;;;17.60;44.80;;;16.37;41.92;98746.00;4995165;28;20461;-72
2023/05/27 06:22:46;;;;;;;3.60;2.13;;;17.00;44.90;;;15.70;42.38;98747.84;5000201;28;20462;-74
2023/05/27 06:25:14;;;;;;;5.63;2.47;;;16.40;45.00;;;15.44;43.19;98747.16;5021916;28;20458;-74
2023/05/27 06:27:41;;;;;;;4.03;1.73;;;16.00;45.40;;;15.37;43.47;98746.38;5010346;28;20550;-73
2023/05/27 06:30:10;;;;;;;6.60;2.30;;;15.90;46.10;;;15.22;44.40;98752.22;5017246;28;20761;-75
2023/05/27 06:32:38;;;;;;;5.10;2.00;;;15.70;46.20;;;15.41;45.53;98744.88;5013491;28;20471;-75
2023/05/27 06:35:07;;;;;;;3.60;1.83;;;15.70;47.10;;;15.52;43.85;98741.38;5001039;28;20957;-74
2023/05/27 06:37:34;;;;;;;6.03;2.37;;;15.80;46.60;;;15.48;43.91;98733.91;5001056;28;20483;-71
2023/05/27 06:40:06;;;;;;;6.53;2.37;;;15.80;46.40;;;15.41;44.25;98742.16;5017107;28;20468;-68
2023/05/27 06:42:33;;;;;;;3.87;2.40;;;15.80;46.60;;;16.10;43.60;98743.72;5010507;28;20460;-74
2023/05/27 06:45:01;;;;;;;8.03;2.40;;;16.10;47.20;;;15.81;43.10;98722.53;4999088;28;20465;-76
2023/05/27 06:47:28;;;;;;;2.80;1.90;;;16.20;46.40;;;15.72;43.52;98680.34;4996754;28;20464;-73
2023/05/27 06:49:56;;;;;;;2.73;2.43;;;16.30;47.00;;;15.63;43.70;98733.47;5015105;28;20486;-72
2023/05/27 06:52:26;;;;;;;3.53;2.30;;;16.10;46.30;;;15.36;44.33;98734.69;5011847;28;20462;-72
2023/05/27 06:54:54;;;;;;;6.33;2.60;;;15.90;46.50;;;15.73;43.63;98731.03;5014139;28;20535;-74
2023/05/27 06:57:21;;;;;;;3.17;2.00;;;16.00;46.80;;;15.73;43.98;98714.69;4995852;28;20530;-73
2023/05/27 06:59:48;;;;;;;4.33;2.30;;;16.10;47.10;;;16.06;43.14;98735.19;5020726;28;20460;-73
2023/05/27 07:02:16;;;;;;;5.57;2.40;;;16.30;46.80;;;16.04;42.74;98741.91;5000938;28;20542;-72
2023/05/27 07:04:43;;;;;;;4.90;2.40;;;16.30;46.30;;;15.85;42.88;98734.63;5016327;28;20596;-73
2023/05/27 07:07:12;;;;;;;4.27;2.30;;;16.30;46.30;;;16.01;43.19;98737.78;5012320;28;20540;-73
2023/05/27 07:09:39;;;;;;;3.27;1.93;;;16.30;46.60;;;16.31;42.58;98741.50;5003340;28;20483;-73
2023/05/27 07:12:08;;;;;;;3.33;2.10;;;16.50;46.60;;;15.97;42.63;98728.41;5015117;28;20467;-74
2023/05/27 07:14:35;;;;;;;4.93;2.50;;;16.40;46.20;;;16.10;42.72;98736.38;5014660;28;20487;-72
2023/05/27 07:17:03;;;;;;;5.43;1.90;;;16.40;46.50;;;15.80;43.42;98731.75;5017298;28;20463;-73
2023/05/27 07:19:32;;;;;;;6.03;2.53;;;16.20;46.30;;;15.90;43.14;98725.78;5016791;28;20469;-75
2023/05/27 07:21:59;;;;;;;3.27;2.00;;;16.20;46.60;;;16.05;43.56;98727.22;5016694;28;20453;-74
2023/05/27 07:24:28;;;;;;;6.03;2.37;;;16.40;46.80;;;16.00;43.30;98731.50;5001616;28;20473;-73
2023/05/27 07:26:56;;;;;;;5.20;2.60;;;16.40;46.30;;;15.92;43.22;98725.56;4997779;28;20952;-74
2023/05/27 07:29:23;;;;;;;3.30;2.33;;;16.40;46.40;;;15.86;43.25;98736.31;5000902;28;21076;-71
2023/05/27 07:31:50;;;;;;;7.20;2.63;;;16.20;46.30;;;15.69;43.16;98724.38;5020709;28;20465;-77
2023/05/27 07:34:18;;;;;;;4.80;2.37;;;16.10;46.20;;;15.66;43.19;98675.81;5000564;28;20485;-73
2023/05/27 07:36:45;;;;;;;4.87;2.67;;;16.30;46.50;;;16.02;43.01;98714.91;5020724;28;20522;-74
2023/05/27 07:39:12;;;;;;;6.50;2.70;;;16.40;46.60;;;16.29;42.73;98717.19;5004664;28;20489;-75
2023/05/27 07:41:41;;;;;;;3.90;2.10;;;16.50;46.40;;;16.18;43.08;98716.13;5017066;28;20452;-74
2023/05/27 07:44:08;;;;;;;7.33;2.60;;;16.50;46.40;;;16.36;42.76;98722.53;5004483;28;20457;-76
2023/05/27 07:46:38;;;;;;;5.53;2.30;;;16.60;46.50;;;16.41;42.53;98720.75;5014803;28;20577;-74
2023/05/27 07:49:06;;;;;;;5.37;2.40;;;16.70;46.40;;;16.41;41.99;98682.56;5019597;28;20483;-77
2023/05/27 07:51:33;;;;;;;2.93;2.17;;;16.90;46.20;;;17.05;41.87;98708.28;5022020;28;20471;-75
2023/05/27 07:54:00;;;;;;;3.63;2.13;;;17.10;46.60;;;16.97;41.38;98700.41;5002058;28;20988;-74
2023/05/27 07:56:28;;;;;;;4.53;2.30;;;17.30;46.10;;;16.73;42.03;98695.03;5024840;28;20520;-75
2023/05/27 07:58:56;;;;;;;4.10;1.93;;;17.20;46.30;;;16.62;41.84;98710.34;5000394;28;20470;-75
2023/05/27 08:01:30;;;;;;;5.13;1.80;;;17.00;46.20;;;16.92;42.19;98703.91;5016249;28;20537;-76
2023/05/27 08:03:57;;;;;;;5.00;2.50;;;17.10;46.50;;;17.01;41.59;98707.09;4998111;28;20465;-74
2023/05/27 08:06:24;;;;;;;7.10;2.40;;;17.30;46.30;;;17.09;41.73;98709.44;5014718;28;20449;-75
2023/05/27 08:08:52;;;;;;;6.90;2.50;;;17.40;46.30;;;17.05;41.86;98697.38;5019101;28;20468;-76
2023/05/27 08:11:19;;;;;;;4.20;2.30;;;17.30;46.30;;;16.68;41.79;98671.19;5011961;28;20454;-71
2023/05/27 08:13:47;;;;;;;4.67;2.30;;;17.20;46.20;;;16.81;41.71;98669.25;5019238;28;21001;-74
2023/05/27 08:16:16;;;;;;;5.40;1.90;;;17.20;46.30;;;17.40;41.28;98690.13;4996689;28;20464;-72
2023/05/27 08:18:43;;;;;;;5.10;2.60;;;17.50;46.50;;;17.29;41.90;98686.38;5009266;28;20461;-72
2023/05/27 08:21:11;;;;;;;4.60;2.50;;;17.60;46.60;;;17.74;42.48;98686.63;4997975;28;20848;-73
2023/05/27 08:23:38;;;;;;;7.67;2.23;;;17.80;47.40;;;17.39;40.87;98631.13;5017462;28;20455;-72
2023/05/27 08:26:06;;;;;;;6.80;2.43;;;17.90;46.30;;;18.14;40.57;98682.16;5016125;28;20469;-73
2023/05/27 08:28:36;;;;;;;9.43;2.20;;;18.20;46.60;;;18.59;40.44;98672.97;5009450;28;20811;-72
2023/05/27 08:31:04;;;;;;;5.20;2.23;;;18.60;47.10;;;18.53;39.98;98685.75;5012389;28;20490;-73
2023/05/27 08:33:32;;;;;;;4.13;2.50;;;18.60;46.60;;;18.16;39.76;98633.50;4998229;28;20498;-78
2023/05/27 08:36:00;;;;;;;3.27;2.10;;;18.60;46.20;;;17.99;39.96;98675.31;5003406;28;21033;-71
2023/05/27 08:38:27;;;;;;;4.50;2.83;;;18.40;45.80;;;17.70;40.85;98678.09;4992795;28;20592;-71
2023/05/27 08:40:55;;;;;;;2.87;2.00;;;18.10;45.90;;;18.25;40.15;98673.00;4998317;28;20539;-76
2023/05/27 08:43:22;;;;;;;10.00;2.30;;;18.20;46.20;;;18.70;39.41;98673.94;5012350;28;20474;-72
2023/05/27 08:45:49;;;;;;;7.13;2.50;;;18.60;46.20;;;18.51;39.58;98657.81;4996309;28;20458;-74
2023/05/27 08:48:17;;;;;;;3.97;2.40;;;18.70;46.00;;;18.82;39.45;98662.88;4997983;28;20959;-75
2023/05/27 08:50:46;;;;;;;5.37;2.20;;;18.80;46.20;;;18.72;39.58;98662.72;4995632;28;20576;-73
2023/05/27 08:53:15;;;;;;;3.57;2.57;;;18.90;46.00;;;18.57;39.40;98660.63;5016819;28;20547;-74
2023/05/27 08:55:44;;;;;;;5.90;2.70;;;18.90;45.90;;;18.27;39.45;98676.31;5009233;28;20493;-73
2023/05/27 08:58:13;;;;;;;4.80;2.70;;;18.70;45.50;;;18.35;39.88;98675.91;5019223;28;21752;-73
2023/05/27 09:00:41;;;;;;;5.80;2.53;;;18.60;45.90;;;18.15;39.36;98670.13;5006776;28;20464;-76
2023/05/27 09:03:08;;;;;;;3.20;2.13;;;18.50;45.40;;;18.41;39.83;98657.66;5009390;28;20546;-75
2023/05/27 09:05:36;;;;;;;5.17;3.13;;;18.50;45.90;;;18.24;39.65;98663.16;5031877;28;20488;-77
2023/05/27 09:08:05;;;;;;;4.93;3.10;;;18.50;45.50;;;18.56;39.81;98662.50;5015107;28;20485;-73
2023/05/27 09:10:39;;;;;;;3.07;2.07;;;18.70;46.20;;;18.70;38.95;98660.25;5007545;28;20501;-76
2023/05/27 09:13:06;;;;;;;3.93;2.07;;;18.80;45.60;;;18.91;38.69;98655.03;5020724;28;20474;-77
2023/05/27 09:15:35;;;;;;;3.10;2.10;;;19.00;45.70;;;18.87;38.28;98653.91;5007209;28;20897;-74
2023/05/27 09:18:04;;;;;;;4.60;2.73;;;19.00;45.40;;;18.83;38.15;98648.09;5016067;28;20823;-71
2023/05/27 09:20:31;;;;;;;3.90;2.10;;;19.10;45.20;;;18.81;38.18;98656.59;5006850;28;20457;-73
2023/05/27 09:23:00;;;;;;;4.93;2.43;;;19.10;44.90;;;18.88;38.32;98648.19;5023418;28;20463;-72
2023/05/27 09:25:30;;;;;;;4.77;2.60;;;19.10;45.10;;;18.63;38.58;98648.66;5028019;28;20462;-73
2023/05/27 09:27:57;;;;;;;4.30;2.13;;;19.00;45.00;;;18.89;38.89;98647.09;5020093;28;20454;-72
2023/05/27 09:30:26;;;;;;;4.20;2.70;;;19.00;45.40;;;18.77;37.98;98619.84;5005981;28;20466;-73
2023/05/27 09:33:03;;;;;;;3.60;2.10;;;19.20;45.10;;;18.90;37.99;98640.53;5009316;28;20958;-73
2023/05/27 09:35:30;;;;;;;5.37;2.23;;;19.10;44.80;;;18.93;37.55;98648.22;5019525;28;20474;-73
2023/05/27 09:38:06;;;;;;;5.80;2.30;;;19.10;44.50;;;19.10;37.46;98641.88;5001873;28;20862;-73
2023/05/27 09:40:37;;;;;;;4.70;2.13;;;19.20;44.50;;;19.18;37.20;98644.16;5016404;28;20466;-73
2023/05/27 09:43:04;;;;;;;5.13;2.57;;;19.30;44.40;;;18.91;37.18;98633.13;5019517;28;20548;-74
2023/05/27 09:45:32;;;;;;;6.57;2.20;;;19.20;44.00;;;18.84;37.18;98636.06;4999470;28;20520;-77
2023/05/27 09:48:02;;;;;;;6.53;2.27;;;19.10;43.80;;;18.91;36.53;98627.66;5020110;28;20462;-72
2023/05/27 09:50:31;;;;;;;4.93;2.80;;;19.10;43.60;;;19.29;36.74;98619.63;4997575;28;20475;-72
2023/05/27 09:53:02;;;;;;;4.37;2.50;;;19.30;44.40;;;19.60;36.48;98628.97;5017705;28;20464;-73
2023/05/27 09:55:31;;;;;;;2.83;2.40;;;19.60;44.60;;;19.53;36.61;98611.91;5014516;28;20549;-72
2023/05/27 09:58:00;;;;;;;5.70;2.27;;;19.60;44.10;;;19.88;35.55;98628.94;5015153;28;20461;-74
2023/05/27 10:00:29;;;;;;;4.53;2.17;;;19.90;43.80;;;19.66;36.02;98621.63;5003013;28;20465;-71
2023/05/27 10:02:58;;;;;;;6.60;3.23;;;19.90;43.70;;;20.09;36.33;98624.47;5018036;28;20458;-72
2023/05/27 10:05:27;;;;;;;4.87;2.30;;;20.10;44.40;;;20.26;36.31;98607.84;5020092;28;20473;-69
2023/05/27 10:08:13;;;;;;;4.27;2.13;;;20.30;44.70;;;20.35;34.45;98613.66;5017867;28;20578;-74
2023/05/27 10:11:01;;;;;;;3.43;2.07;;;20.40;43.10;;;20.23;33.93;98600.13;5019447;28;20504;-73
2023/05/27 10:13:51;;;;;;;5.10;4.10;;;20.30;42.60;;;20.46;32.89;98589.84;5006783;28;20578;-74
2023/05/27 10:16:38;;;;;;;5.67;2.20;;;20.50;42.10;;;20.12;33.93;98601.97;5017268;28;20450;-73
2023/05/27 10:19:25;;;;;;;6.10;3.00;;;20.40;42.30;;;20.08;34.08;98598.94;5015232;28;20528;-73
2023/05/27 10:22:13;;;;;;;4.70;2.53;;;20.30;42.40;;;20.57;33.36;98591.56;5014716;28;20439;-68
2023/05/27 10:25:12;;;;;;;5.77;2.40;;;20.50;42.70;;;20.53;33.51;98595.91;5018001;28;20454;-72
2023/05/27 10:27:45;;;;;;;4.67;2.40;;;20.60;42.10;;;20.52;33.84;98594.25;5017160;28;20500;-73